IWG002 LEAS-LXGB
Flight info
| Callsign | IWG002 |
|---|---|
| Flight time | 1h 17m |
| Altitude | 37000 |
| Route | VES OMESI M30 MELON Z180 SVL MONTE BRIKE |
| Aircraft | A20N/M-SDE2E3FGHIJ1RWXY/LB1 |
Departure
| Time | 2026-04-29 15:32 |
|---|---|
| Airport | Asturias Airport (LEAS) |
Arrival
| Time | 2026-04-29 16:49 |
|---|---|
| Airport | Gibraltar Airport (LXGB) |
| Time | Latitude | Longitude | Altitude | Speed | Heading |
|---|---|---|---|---|---|
| 2026-04-29 15:20 | 43.55972 | -6.03108 | 399 ft | 0 kts | 245° |
| 2026-04-29 15:27 | 43.55976 | -6.03095 | 426 ft | 2 kts | 245° |
| 2026-04-29 15:27 | 43.55983 | -6.03075 | 418 ft | 2 kts | 245° |
| 2026-04-29 15:27 | 43.55990 | -6.03055 | 419 ft | 2 kts | 245° |
| 2026-04-29 15:28 | 43.55999 | -6.03037 | 413 ft | 2 kts | 168° |
| 2026-04-29 15:28 | 43.56009 | -6.03044 | 417 ft | 2 kts | 121° |
| 2026-04-29 15:28 | 43.56010 | -6.03046 | 418 ft | 0 kts | 114° |
| 2026-04-29 15:29 | 43.56009 | -6.03043 | 417 ft | 2 kts | 114° |
| 2026-04-29 15:29 | 43.56000 | -6.02955 | 421 ft | 7 kts | 76° |
| 2026-04-29 15:30 | 43.56025 | -6.02763 | 423 ft | 13 kts | 106° |
| 2026-04-29 15:30 | 43.55999 | -6.02634 | 421 ft | 15 kts | 108° |
| 2026-04-29 15:30 | 43.55963 | -6.02490 | 418 ft | 17 kts | 108° |
| 2026-04-29 15:30 | 43.55960 | -6.02337 | 425 ft | 16 kts | 71° |
| 2026-04-29 15:31 | 43.55971 | -6.02301 | 423 ft | 0 kts | 65° |
| 2026-04-29 15:31 | 43.55983 | -6.02271 | 421 ft | 13 kts | 57° |
| 2026-04-29 15:31 | 43.56089 | -6.02327 | 419 ft | 40 kts | 292° |
| 2026-04-29 15:31 | 43.56239 | -6.02946 | 418 ft | 98 kts | 287° |
| 2026-04-29 15:32 | 43.56503 | -6.04084 | 418 ft | 154 kts | 285° |
| 2026-04-29 15:32 | 43.56863 | -6.05544 | 953 ft | 158 kts | 282° |
| 2026-04-29 15:32 | 43.57207 | -6.06994 | 1544 ft | 163 kts | 270° |
| 2026-04-29 15:32 | 43.57540 | -6.08610 | 1847 ft | 188 kts | 282° |
| 2026-04-29 15:33 | 43.57879 | -6.10414 | 2378 ft | 199 kts | 275° |
| 2026-04-29 15:33 | 43.57989 | -6.12337 | 2962 ft | 205 kts | 259° |
| 2026-04-29 15:33 | 43.57698 | -6.14274 | 3667 ft | 208 kts | 249° |
| 2026-04-29 15:33 | 43.56970 | -6.16026 | 4258 ft | 219 kts | 218° |
| 2026-04-29 15:34 | 43.55541 | -6.16928 | 4633 ft | 240 kts | 184° |
| 2026-04-29 15:34 | 43.53850 | -6.16467 | 5047 ft | 262 kts | 147° |
| 2026-04-29 15:34 | 43.52330 | -6.14969 | 5736 ft | 271 kts | 143° |
| 2026-04-29 15:34 | 43.50781 | -6.13526 | 6653 ft | 273 kts | 149° |
| 2026-04-29 15:35 | 43.49087 | -6.12309 | 7545 ft | 275 kts | 157° |
| 2026-04-29 15:35 | 43.47909 | -6.11620 | 8134 ft | 278 kts | 160° |
| 2026-04-29 15:35 | 43.46095 | -6.10681 | 9019 ft | 281 kts | 162° |
| 2026-04-29 15:35 | 43.44234 | -6.09777 | 9849 ft | 285 kts | 162° |
| 2026-04-29 15:36 | 43.41675 | -6.08550 | 10512 ft | 307 kts | 162° |
| 2026-04-29 15:36 | 43.39581 | -6.07542 | 10789 ft | 329 kts | 162° |
| 2026-04-29 15:36 | 43.38133 | -6.06837 | 11184 ft | 335 kts | 162° |
| 2026-04-29 15:36 | 43.35931 | -6.05756 | 12056 ft | 336 kts | 162° |
| 2026-04-29 15:37 | 43.33717 | -6.04666 | 12913 ft | 339 kts | 163° |
| 2026-04-29 15:37 | 43.31531 | -6.03591 | 13672 ft | 343 kts | 163° |
| 2026-04-29 15:37 | 43.29303 | -6.02498 | 14368 ft | 346 kts | 163° |
| 2026-04-29 15:37 | 43.27019 | -6.01379 | 15074 ft | 349 kts | 163° |
| 2026-04-29 15:38 | 43.24721 | -6.00255 | 15752 ft | 352 kts | 163° |
| 2026-04-29 15:38 | 43.22435 | -5.99138 | 16438 ft | 355 kts | 162° |
| 2026-04-29 15:38 | 43.20049 | -5.97973 | 17148 ft | 358 kts | 163° |
| 2026-04-29 15:38 | 43.17718 | -5.96836 | 17831 ft | 362 kts | 163° |
| 2026-04-29 15:39 | 43.15333 | -5.95675 | 18453 ft | 365 kts | 163° |
| 2026-04-29 15:39 | 43.12927 | -5.94503 | 19052 ft | 368 kts | 163° |
| 2026-04-29 15:39 | 43.10496 | -5.93321 | 19611 ft | 371 kts | 162° |
| 2026-04-29 15:39 | 43.08046 | -5.92133 | 20158 ft | 375 kts | 163° |
| 2026-04-29 15:40 | 43.05533 | -5.91165 | 20695 ft | 377 kts | 170° |
| 2026-04-29 15:40 | 43.02930 | -5.90609 | 21223 ft | 380 kts | 174° |
| 2026-04-29 15:40 | 43.00300 | -5.90153 | 21806 ft | 382 kts | 174° |
| 2026-04-29 15:40 | 42.97640 | -5.89682 | 22301 ft | 387 kts | 174° |
| 2026-04-29 15:41 | 42.94990 | -5.89208 | 22827 ft | 390 kts | 173° |
| 2026-04-29 15:41 | 42.92279 | -5.88721 | 23360 ft | 394 kts | 173° |
| 2026-04-29 15:41 | 42.89543 | -5.88229 | 23838 ft | 396 kts | 173° |
| 2026-04-29 15:41 | 42.86801 | -5.87736 | 24339 ft | 397 kts | 173° |
| 2026-04-29 15:42 | 42.84049 | -5.87243 | 24822 ft | 399 kts | 173° |
| 2026-04-29 15:42 | 42.81308 | -5.86754 | 25238 ft | 402 kts | 173° |
| 2026-04-29 15:42 | 42.78554 | -5.86264 | 25694 ft | 403 kts | 173° |
| 2026-04-29 15:42 | 42.75770 | -5.85769 | 26124 ft | 405 kts | 173° |
| 2026-04-29 15:43 | 42.72955 | -5.85267 | 26543 ft | 408 kts | 173° |
| 2026-04-29 15:43 | 42.70129 | -5.84763 | 26944 ft | 410 kts | 173° |
| 2026-04-29 15:43 | 42.67331 | -5.84261 | 27342 ft | 412 kts | 173° |
| 2026-04-29 15:43 | 42.64477 | -5.83749 | 27731 ft | 415 kts | 173° |
| 2026-04-29 15:44 | 42.61606 | -5.83235 | 28103 ft | 417 kts | 173° |
| 2026-04-29 15:44 | 42.58722 | -5.82716 | 28458 ft | 419 kts | 173° |
| 2026-04-29 15:44 | 42.55818 | -5.82194 | 28801 ft | 421 kts | 173° |
| 2026-04-29 15:44 | 42.52904 | -5.81668 | 29142 ft | 423 kts | 172° |
| 2026-04-29 15:45 | 42.49971 | -5.81137 | 29458 ft | 425 kts | 172° |
| 2026-04-29 15:45 | 42.47024 | -5.80605 | 29785 ft | 428 kts | 172° |
| 2026-04-29 15:45 | 42.44068 | -5.80073 | 30073 ft | 430 kts | 172° |
| 2026-04-29 15:45 | 42.41096 | -5.79540 | 30377 ft | 431 kts | 172° |
| 2026-04-29 15:46 | 42.38143 | -5.79010 | 30661 ft | 433 kts | 172° |
| 2026-04-29 15:46 | 42.35138 | -5.78472 | 30963 ft | 434 kts | 172° |
| 2026-04-29 15:46 | 42.32132 | -5.77934 | 31319 ft | 434 kts | 172° |
| 2026-04-29 15:46 | 42.29139 | -5.77398 | 31700 ft | 433 kts | 173° |
| 2026-04-29 15:47 | 42.26152 | -5.76865 | 32076 ft | 432 kts | 173° |
| 2026-04-29 15:47 | 42.23165 | -5.76331 | 32446 ft | 431 kts | 173° |
| 2026-04-29 15:47 | 42.20222 | -5.75807 | 32797 ft | 430 kts | 173° |
| 2026-04-29 15:47 | 42.17242 | -5.75275 | 33150 ft | 429 kts | 173° |
| 2026-04-29 15:48 | 42.14288 | -5.74748 | 33502 ft | 428 kts | 173° |
| 2026-04-29 15:48 | 42.11329 | -5.74222 | 33831 ft | 428 kts | 173° |
| 2026-04-29 15:48 | 42.08377 | -5.73697 | 34083 ft | 427 kts | 173° |
| 2026-04-29 15:48 | 42.05417 | -5.73172 | 34331 ft | 427 kts | 173° |
| 2026-04-29 15:49 | 42.02501 | -5.72656 | 34560 ft | 428 kts | 173° |
| 2026-04-29 15:49 | 41.99548 | -5.72134 | 34782 ft | 428 kts | 173° |
| 2026-04-29 15:49 | 41.96598 | -5.71612 | 34996 ft | 428 kts | 173° |
| 2026-04-29 15:49 | 41.93642 | -5.71090 | 35221 ft | 428 kts | 174° |
| 2026-04-29 15:50 | 41.90689 | -5.70569 | 35433 ft | 428 kts | 174° |
| 2026-04-29 15:50 | 41.87732 | -5.70047 | 35642 ft | 428 kts | 174° |
| 2026-04-29 15:50 | 41.84775 | -5.69526 | 35839 ft | 428 kts | 174° |
| 2026-04-29 15:50 | 41.81818 | -5.69006 | 36034 ft | 428 kts | 174° |
| 2026-04-29 15:51 | 41.78886 | -5.68492 | 36233 ft | 428 kts | 174° |
| 2026-04-29 15:51 | 41.75928 | -5.67976 | 36414 ft | 428 kts | 174° |
| 2026-04-29 15:51 | 41.72971 | -5.67461 | 36600 ft | 428 kts | 174° |
| 2026-04-29 15:51 | 41.70011 | -5.66943 | 36779 ft | 428 kts | 174° |
| 2026-04-29 15:52 | 41.67052 | -5.66425 | 36831 ft | 428 kts | 174° |
| 2026-04-29 15:52 | 41.61186 | -5.65399 | 36833 ft | 427 kts | 174° |
| 2026-04-29 15:53 | 41.55281 | -5.64367 | 36838 ft | 427 kts | 174° |
| 2026-04-29 15:53 | 41.49368 | -5.63312 | 36836 ft | 427 kts | 174° |
| 2026-04-29 15:54 | 41.43462 | -5.62193 | 36829 ft | 428 kts | 174° |
| 2026-04-29 15:54 | 41.37589 | -5.61088 | 36842 ft | 428 kts | 174° |
| 2026-04-29 15:55 | 41.31661 | -5.59984 | 36850 ft | 429 kts | 174° |
| 2026-04-29 15:55 | 41.25740 | -5.58885 | 36850 ft | 429 kts | 174° |
| 2026-04-29 15:56 | 41.19836 | -5.57792 | 36855 ft | 429 kts | 174° |
| 2026-04-29 15:56 | 41.13945 | -5.56702 | 36855 ft | 430 kts | 174° |
| 2026-04-29 15:57 | 41.08009 | -5.55606 | 36859 ft | 430 kts | 175° |
| 2026-04-29 15:57 | 41.02092 | -5.54511 | 36861 ft | 430 kts | 175° |
| 2026-04-29 15:58 | 40.96157 | -5.53418 | 36861 ft | 430 kts | 175° |
| 2026-04-29 15:58 | 40.90149 | -5.52314 | 36860 ft | 430 kts | 175° |
| 2026-04-29 15:59 | 40.84258 | -5.51235 | 36855 ft | 430 kts | 175° |
| 2026-04-29 15:59 | 40.78315 | -5.50148 | 36854 ft | 430 kts | 175° |
| 2026-04-29 16:00 | 40.72385 | -5.49065 | 36854 ft | 430 kts | 175° |
| 2026-04-29 16:00 | 40.66487 | -5.47989 | 36852 ft | 430 kts | 175° |
| 2026-04-29 16:01 | 40.60561 | -5.46911 | 36855 ft | 429 kts | 175° |
| 2026-04-29 16:01 | 40.54639 | -5.45837 | 36856 ft | 428 kts | 176° |
| 2026-04-29 16:02 | 40.48758 | -5.44771 | 36855 ft | 428 kts | 176° |
| 2026-04-29 16:02 | 40.42859 | -5.43704 | 36858 ft | 427 kts | 176° |
| 2026-04-29 16:03 | 40.37015 | -5.42648 | 36859 ft | 427 kts | 176° |
| 2026-04-29 16:03 | 40.31092 | -5.41581 | 36864 ft | 427 kts | 176° |
| 2026-04-29 16:04 | 40.25201 | -5.40519 | 36853 ft | 426 kts | 177° |
| 2026-04-29 16:04 | 40.19307 | -5.39467 | 36861 ft | 426 kts | 177° |
| 2026-04-29 16:05 | 40.13473 | -5.38425 | 36860 ft | 425 kts | 177° |
| 2026-04-29 16:05 | 40.07553 | -5.37367 | 36856 ft | 426 kts | 177° |
| 2026-04-29 16:06 | 40.01687 | -5.36318 | 36857 ft | 425 kts | 177° |
| 2026-04-29 16:06 | 39.95840 | -5.35275 | 36851 ft | 424 kts | 177° |
| 2026-04-29 16:07 | 39.89994 | -5.34233 | 36844 ft | 424 kts | 177° |
| 2026-04-29 16:07 | 39.84184 | -5.33199 | 36844 ft | 424 kts | 177° |
| 2026-04-29 16:08 | 39.78322 | -5.32597 | 36841 ft | 418 kts | 186° |
| 2026-04-29 16:08 | 39.72634 | -5.33470 | 36838 ft | 411 kts | 197° |
| 2026-04-29 16:09 | 39.67135 | -5.35514 | 36853 ft | 410 kts | 200° |
| 2026-04-29 16:09 | 39.61651 | -5.37633 | 36855 ft | 412 kts | 200° |
| 2026-04-29 16:10 | 39.57056 | -5.39393 | 36869 ft | 413 kts | 200° |
| 2026-04-29 16:10 | 39.51540 | -5.41501 | 36872 ft | 413 kts | 200° |
| 2026-04-29 16:11 | 39.46048 | -5.43598 | 36874 ft | 413 kts | 200° |
| 2026-04-29 16:11 | 39.40541 | -5.45698 | 36874 ft | 413 kts | 200° |
| 2026-04-29 16:12 | 39.35016 | -5.47802 | 36875 ft | 413 kts | 200° |
| 2026-04-29 16:12 | 39.29491 | -5.49902 | 36877 ft | 413 kts | 200° |
| 2026-04-29 16:13 | 39.23935 | -5.52011 | 36873 ft | 413 kts | 200° |
| 2026-04-29 16:13 | 39.18356 | -5.54125 | 36873 ft | 414 kts | 200° |
| 2026-04-29 16:14 | 39.12795 | -5.56228 | 36875 ft | 414 kts | 200° |
| 2026-04-29 16:14 | 39.07237 | -5.58326 | 36878 ft | 415 kts | 200° |
| 2026-04-29 16:15 | 39.01688 | -5.60418 | 36880 ft | 415 kts | 200° |
| 2026-04-29 16:15 | 38.96175 | -5.62493 | 36878 ft | 416 kts | 200° |
| 2026-04-29 16:16 | 38.90608 | -5.64585 | 36875 ft | 416 kts | 200° |
| 2026-04-29 16:16 | 38.85065 | -5.66666 | 36876 ft | 417 kts | 200° |
| 2026-04-29 16:17 | 38.79478 | -5.68759 | 36875 ft | 417 kts | 200° |
| 2026-04-29 16:17 | 38.73925 | -5.70836 | 36874 ft | 418 kts | 200° |
| 2026-04-29 16:18 | 38.68337 | -5.72922 | 36874 ft | 418 kts | 200° |
| 2026-04-29 16:18 | 38.62744 | -5.75008 | 36878 ft | 418 kts | 200° |
| 2026-04-29 16:19 | 38.57137 | -5.77095 | 36881 ft | 419 kts | 200° |
| 2026-04-29 16:19 | 38.51562 | -5.79166 | 36886 ft | 419 kts | 200° |
| 2026-04-29 16:20 | 38.45930 | -5.81255 | 36884 ft | 419 kts | 200° |
| 2026-04-29 16:20 | 38.40360 | -5.83318 | 36885 ft | 419 kts | 200° |
| 2026-04-29 16:21 | 38.34738 | -5.85397 | 36891 ft | 419 kts | 200° |
| 2026-04-29 16:21 | 38.29131 | -5.87467 | 36892 ft | 419 kts | 200° |
| 2026-04-29 16:22 | 38.23549 | -5.89525 | 36893 ft | 419 kts | 200° |
| 2026-04-29 16:22 | 38.17967 | -5.91580 | 36895 ft | 419 kts | 200° |
| 2026-04-29 16:23 | 38.12354 | -5.93642 | 36895 ft | 419 kts | 200° |
| 2026-04-29 16:23 | 38.06768 | -5.95692 | 36895 ft | 419 kts | 200° |
| 2026-04-29 16:24 | 38.01173 | -5.97741 | 36896 ft | 420 kts | 200° |
| 2026-04-29 16:24 | 37.95340 | -5.98840 | 36614 ft | 431 kts | 183° |
| 2026-04-29 16:24 | 37.92335 | -5.98487 | 36063 ft | 438 kts | 174° |
| 2026-04-29 16:25 | 37.89352 | -5.97491 | 35254 ft | 448 kts | 165° |
| 2026-04-29 16:25 | 37.86438 | -5.96131 | 34323 ft | 455 kts | 164° |
| 2026-04-29 16:25 | 37.83467 | -5.94747 | 33438 ft | 458 kts | 164° |
| 2026-04-29 16:25 | 37.80480 | -5.93366 | 32726 ft | 455 kts | 164° |
| 2026-04-29 16:26 | 37.77505 | -5.92000 | 32089 ft | 452 kts | 165° |
| 2026-04-29 16:26 | 37.74605 | -5.90671 | 31679 ft | 443 kts | 165° |
| 2026-04-29 16:26 | 37.71703 | -5.89346 | 31113 ft | 439 kts | 165° |
| 2026-04-29 16:26 | 37.68825 | -5.88036 | 30511 ft | 437 kts | 165° |
| 2026-04-29 16:27 | 37.66025 | -5.86764 | 29962 ft | 434 kts | 165° |
| 2026-04-29 16:27 | 37.63118 | -5.85444 | 29361 ft | 429 kts | 165° |
| 2026-04-29 16:27 | 37.60323 | -5.84174 | 28787 ft | 425 kts | 165° |
| 2026-04-29 16:27 | 37.57584 | -5.82931 | 28189 ft | 421 kts | 165° |
| 2026-04-29 16:28 | 37.54835 | -5.81684 | 27616 ft | 418 kts | 165° |
| 2026-04-29 16:28 | 37.52110 | -5.80450 | 27052 ft | 414 kts | 164° |
| 2026-04-29 16:28 | 37.49355 | -5.79202 | 26497 ft | 411 kts | 164° |
| 2026-04-29 16:28 | 37.46704 | -5.78003 | 25963 ft | 408 kts | 165° |
| 2026-04-29 16:29 | 37.44041 | -5.76785 | 25433 ft | 405 kts | 162° |
| 2026-04-29 16:29 | 37.41477 | -5.75281 | 24914 ft | 406 kts | 155° |
| 2026-04-29 16:29 | 37.39065 | -5.73494 | 24408 ft | 404 kts | 153° |
| 2026-04-29 16:29 | 37.36662 | -5.71694 | 23921 ft | 401 kts | 153° |
| 2026-04-29 16:30 | 37.34272 | -5.69912 | 23421 ft | 398 kts | 154° |
| 2026-04-29 16:30 | 37.31891 | -5.68143 | 22907 ft | 394 kts | 154° |
| 2026-04-29 16:30 | 37.29541 | -5.66401 | 22370 ft | 390 kts | 154° |
| 2026-04-29 16:30 | 37.27209 | -5.64672 | 21851 ft | 386 kts | 154° |
| 2026-04-29 16:31 | 37.24905 | -5.62967 | 21336 ft | 383 kts | 154° |
| 2026-04-29 16:31 | 37.22638 | -5.61290 | 20847 ft | 379 kts | 153° |
| 2026-04-29 16:31 | 37.20372 | -5.59614 | 20352 ft | 376 kts | 154° |
| 2026-04-29 16:31 | 37.18125 | -5.57955 | 19847 ft | 373 kts | 153° |
| 2026-04-29 16:32 | 37.15902 | -5.56314 | 19369 ft | 370 kts | 153° |
| 2026-04-29 16:32 | 37.14435 | -5.55232 | 19049 ft | 368 kts | 153° |
| 2026-04-29 16:32 | 37.11507 | -5.53073 | 18438 ft | 364 kts | 153° |
| 2026-04-29 16:32 | 37.09329 | -5.51469 | 17937 ft | 361 kts | 153° |
| 2026-04-29 16:33 | 37.04842 | -5.48955 | 16921 ft | 349 kts | 169° |
| 2026-04-29 16:33 | 37.02478 | -5.48424 | 16414 ft | 343 kts | 177° |
| 2026-04-29 16:33 | 37.00097 | -5.48134 | 15936 ft | 341 kts | 177° |
| 2026-04-29 16:34 | 36.97742 | -5.47832 | 15454 ft | 338 kts | 177° |
| 2026-04-29 16:34 | 36.95433 | -5.47529 | 14988 ft | 335 kts | 177° |
| 2026-04-29 16:34 | 36.93137 | -5.47224 | 14788 ft | 324 kts | 177° |
| 2026-04-29 16:34 | 36.90939 | -5.46931 | 14676 ft | 310 kts | 177° |
| 2026-04-29 16:35 | 36.88837 | -5.46652 | 14567 ft | 298 kts | 177° |
| 2026-04-29 16:35 | 36.86814 | -5.46381 | 14443 ft | 286 kts | 177° |
| 2026-04-29 16:35 | 36.84863 | -5.46126 | 14138 ft | 283 kts | 178° |
| 2026-04-29 16:35 | 36.82893 | -5.45872 | 13713 ft | 283 kts | 177° |
| 2026-04-29 16:36 | 36.80934 | -5.45617 | 13309 ft | 281 kts | 177° |
| 2026-04-29 16:36 | 36.78989 | -5.45363 | 12913 ft | 280 kts | 177° |
| 2026-04-29 16:36 | 36.77075 | -5.45115 | 12521 ft | 279 kts | 177° |
| 2026-04-29 16:36 | 36.75142 | -5.44863 | 12169 ft | 278 kts | 177° |
| 2026-04-29 16:37 | 36.73224 | -5.44612 | 11806 ft | 276 kts | 177° |
| 2026-04-29 16:37 | 36.71322 | -5.44365 | 11502 ft | 273 kts | 177° |
| 2026-04-29 16:37 | 36.69427 | -5.44118 | 11209 ft | 274 kts | 177° |
| 2026-04-29 16:37 | 36.68171 | -5.43954 | 11020 ft | 275 kts | 178° |
| 2026-04-29 16:38 | 36.65633 | -5.43621 | 10633 ft | 273 kts | 177° |
| 2026-04-29 16:38 | 36.63737 | -5.43372 | 10337 ft | 271 kts | 178° |
| 2026-04-29 16:38 | 36.62496 | -5.43209 | 10135 ft | 269 kts | 178° |
| 2026-04-29 16:38 | 36.60047 | -5.42888 | 9764 ft | 265 kts | 178° |
| 2026-04-29 16:39 | 36.58830 | -5.42729 | 9550 ft | 263 kts | 178° |
| 2026-04-29 16:39 | 36.57021 | -5.42491 | 9241 ft | 258 kts | 177° |
| 2026-04-29 16:39 | 36.55242 | -5.42260 | 8942 ft | 256 kts | 177° |
| 2026-04-29 16:39 | 36.52906 | -5.41957 | 8541 ft | 253 kts | 177° |
| 2026-04-29 16:40 | 36.51727 | -5.41801 | 8329 ft | 251 kts | 176° |
| 2026-04-29 16:40 | 36.50014 | -5.41378 | 8026 ft | 249 kts | 166° |
| 2026-04-29 16:40 | 36.48423 | -5.40610 | 7728 ft | 247 kts | 160° |
| 2026-04-29 16:40 | 36.46945 | -5.39839 | 7461 ft | 244 kts | 161° |
| 2026-04-29 16:41 | 36.46369 | -5.39542 | 7358 ft | 243 kts | 161° |
| 2026-04-29 16:41 | 36.44780 | -5.38729 | 7053 ft | 240 kts | 161° |
| 2026-04-29 16:41 | 36.43221 | -5.37935 | 6801 ft | 237 kts | 161° |
| 2026-04-29 16:41 | 36.41757 | -5.37081 | 6551 ft | 235 kts | 147° |
| 2026-04-29 16:42 | 36.40538 | -5.35731 | 6324 ft | 233 kts | 140° |
| 2026-04-29 16:42 | 36.39357 | -5.34373 | 6061 ft | 229 kts | 144° |
| 2026-04-29 16:42 | 36.38070 | -5.33252 | 5827 ft | 223 kts | 149° |
| 2026-04-29 16:42 | 36.36758 | -5.32242 | 5567 ft | 220 kts | 150° |
| 2026-04-29 16:43 | 36.35455 | -5.31278 | 5322 ft | 216 kts | 150° |
| 2026-04-29 16:43 | 36.34165 | -5.30347 | 5072 ft | 212 kts | 150° |
| 2026-04-29 16:43 | 36.32920 | -5.29471 | 4831 ft | 208 kts | 150° |
| 2026-04-29 16:43 | 36.31677 | -5.28618 | 4581 ft | 204 kts | 150° |
| 2026-04-29 16:44 | 36.30435 | -5.27783 | 4327 ft | 201 kts | 150° |
| 2026-04-29 16:44 | 36.29203 | -5.26967 | 4072 ft | 198 kts | 150° |
| 2026-04-29 16:44 | 36.28003 | -5.26194 | 3819 ft | 195 kts | 150° |
| 2026-04-29 16:44 | 36.26799 | -5.25431 | 3571 ft | 193 kts | 150° |
| 2026-04-29 16:45 | 36.25606 | -5.24686 | 3329 ft | 190 kts | 150° |
| 2026-04-29 16:45 | 36.24426 | -5.23956 | 3079 ft | 188 kts | 150° |
| 2026-04-29 16:45 | 36.23247 | -5.23249 | 2821 ft | 187 kts | 150° |
| 2026-04-29 16:45 | 36.22125 | -5.22468 | 2507 ft | 183 kts | 138° |
| 2026-04-29 16:46 | 36.20973 | -5.21746 | 2190 ft | 186 kts | 147° |
| 2026-04-29 16:46 | 36.19718 | -5.21388 | 1995 ft | 185 kts | 177° |
| 2026-04-29 16:46 | 36.18511 | -5.21790 | 2045 ft | 181 kts | 195° |
| 2026-04-29 16:46 | 36.17382 | -5.22468 | 1994 ft | 180 kts | 205° |
| 2026-04-29 16:47 | 36.16275 | -5.23249 | 2011 ft | 183 kts | 208° |
| 2026-04-29 16:47 | 36.15451 | -5.24445 | 1898 ft | 190 kts | 248° |
| 2026-04-29 16:47 | 36.15242 | -5.26052 | 1573 ft | 189 kts | 265° |
| 2026-04-29 16:47 | 36.15267 | -5.27685 | 1038 ft | 188 kts | 272° |
| 2026-04-29 16:48 | 36.15426 | -5.29186 | 799 ft | 165 kts | 272° |
| 2026-04-29 16:48 | 36.15441 | -5.30514 | 589 ft | 147 kts | 260° |
| 2026-04-29 16:48 | 36.15313 | -5.31719 | 316 ft | 139 kts | 258° |
| 2026-04-29 16:48 | 36.15217 | -5.32852 | 202 ft | 125 kts | 263° |
| 2026-04-29 16:49 | 36.15170 | -5.33962 | 53 ft | 131 kts | 263° |
| 2026-04-29 16:49 | 36.15122 | -5.34874 | 21 ft | 65 kts | 268° |
| 2026-04-29 16:49 | 36.15122 | -5.35036 | 21 ft | 1 kts | 275° |
| 2026-04-29 16:49 | 36.15124 | -5.35043 | 21 ft | 4 kts | 290° |
| 2026-04-29 16:50 | 36.15138 | -5.35061 | 23 ft | 4 kts | 307° |
| 2026-04-29 16:50 | 36.15117 | -5.35079 | 21 ft | 5 kts | 154° |
| 2026-04-29 16:50 | 36.15106 | -5.35051 | 23 ft | 10 kts | 100° |
| 2026-04-29 16:50 | 36.15119 | -5.34934 | 21 ft | 17 kts | 83° |
| 2026-04-29 16:51 | 36.15131 | -5.34776 | 22 ft | 16 kts | 88° |
| 2026-04-29 16:51 | 36.15202 | -5.34675 | 20 ft | 18 kts | 7° |
| 2026-04-29 16:51 | 36.15309 | -5.34667 | 17 ft | 0 kts | 1° |